sensor_id;sensor_type;location;lat;lon;timestamp;pressure;altitude;pressure_sealevel;temperature
67822;BMP180;54434;50.096;20.082;2023-02-28T00:01:08;100039.60;;;-0.34
67822;BMP180;54434;50.096;20.082;2023-02-28T00:03:45;100049.60;;;-0.40
67822;BMP180;54434;50.096;20.082;2023-02-28T00:06:22;100055.00;;;-0.40
67822;BMP180;54434;50.096;20.082;2023-02-28T00:08:59;100060.40;;;-0.48
67822;BMP180;54434;50.096;20.082;2023-02-28T00:11:35;100065.20;;;-0.50
67822;BMP180;54434;50.096;20.082;2023-02-28T00:14:12;100069.20;;;-0.50
67822;BMP180;54434;50.096;20.082;2023-02-28T00:16:49;100068.00;;;-0.50
67822;BMP180;54434;50.096;20.082;2023-02-28T00:19:25;100068.20;;;-0.50
67822;BMP180;54434;50.096;20.082;2023-02-28T00:22:02;100064.20;;;-0.50
67822;BMP180;54434;50.096;20.082;2023-02-28T00:24:38;100065.20;;;-0.50
67822;BMP180;54434;50.096;20.082;2023-02-28T00:27:15;100065.40;;;-0.52
67822;BMP180;54434;50.096;20.082;2023-02-28T00:29:53;100065.60;;;-0.50
67822;BMP180;54434;50.096;20.082;2023-02-28T00:32:30;100067.80;;;-0.58
67822;BMP180;54434;50.096;20.082;2023-02-28T00:35:08;100068.20;;;-0.60
67822;BMP180;54434;50.096;20.082;2023-02-28T00:37:45;100067.00;;;-0.60
67822;BMP180;54434;50.096;20.082;2023-02-28T00:40:22;100065.80;;;-0.60
67822;BMP180;54434;50.096;20.082;2023-02-28T00:43:01;100062.40;;;-0.60
67822;BMP180;54434;50.096;20.082;2023-02-28T00:45:38;100059.40;;;-0.70
67822;BMP180;54434;50.096;20.082;2023-02-28T00:48:14;100058.80;;;-0.70
67822;BMP180;54434;50.096;20.082;2023-02-28T00:50:54;100060.00;;;-0.70
67822;BMP180;54434;50.096;20.082;2023-02-28T00:53:31;100056.40;;;-0.80
67822;BMP180;54434;50.096;20.082;2023-02-28T00:56:10;100057.40;;;-0.84
67822;BMP180;54434;50.096;20.082;2023-02-28T00:58:46;100061.00;;;-0.90
67822;BMP180;54434;50.096;20.082;2023-02-28T01:01:23;100058.40;;;-1.00
67822;BMP180;54434;50.096;20.082;2023-02-28T01:03:59;100055.20;;;-1.00
67822;BMP180;54434;50.096;20.082;2023-02-28T01:06:36;100060.00;;;-1.10
67822;BMP180;54434;50.096;20.082;2023-02-28T01:09:13;100062.60;;;-1.10
67822;BMP180;54434;50.096;20.082;2023-02-28T01:11:49;100062.80;;;-1.10
67822;BMP180;54434;50.096;20.082;2023-02-28T01:14:26;100064.40;;;-1.20
67822;BMP180;54434;50.096;20.082;2023-02-28T01:17:04;100065.00;;;-1.20
67822;BMP180;54434;50.096;20.082;2023-02-28T01:19:42;100059.00;;;-1.30
67822;BMP180;54434;50.096;20.082;2023-02-28T01:22:18;100057.60;;;-1.38
67822;BMP180;54434;50.096;20.082;2023-02-28T01:24:55;100056.60;;;-1.40
67822;BMP180;54434;50.096;20.082;2023-02-28T01:27:32;100054.20;;;-1.50
67822;BMP180;54434;50.096;20.082;2023-02-28T01:30:13;100059.20;;;-1.58
67822;BMP180;54434;50.096;20.082;2023-02-28T01:32:49;100062.40;;;-1.60
67822;BMP180;54434;50.096;20.082;2023-02-28T01:35:28;100068.00;;;-1.70
67822;BMP180;54434;50.096;20.082;2023-02-28T01:38:05;100067.60;;;-1.70
67822;BMP180;54434;50.096;20.082;2023-02-28T01:40:56;100069.00;;;-1.80
67822;BMP180;54434;50.096;20.082;2023-02-28T01:43:54;100065.40;;;-1.80
67822;BMP180;54434;50.096;20.082;2023-02-28T01:46:31;100067.80;;;-1.80
67822;BMP180;54434;50.096;20.082;2023-02-28T01:49:14;100068.60;;;-1.80
67822;BMP180;54434;50.096;20.082;2023-02-28T01:51:56;100068.40;;;-1.80
67822;BMP180;54434;50.096;20.082;2023-02-28T01:54:37;100074.20;;;-1.80
67822;BMP180;54434;50.096;20.082;2023-02-28T01:57:18;100072.40;;;-1.80
67822;BMP180;54434;50.096;20.082;2023-02-28T02:00:00;100068.00;;;-1.76
67822;BMP180;54434;50.096;20.082;2023-02-28T02:02:51;100067.80;;;-1.70
67822;BMP180;54434;50.096;20.082;2023-02-28T02:05:31;100064.80;;;-1.70
67822;BMP180;54434;50.096;20.082;2023-02-28T02:08:15;100064.60;;;-1.70
67822;BMP180;54434;50.096;20.082;2023-02-28T02:10:56;100058.20;;;-1.66
67822;BMP180;54434;50.096;20.082;2023-02-28T02:13:58;100052.20;;;-1.64
67822;BMP180;54434;50.096;20.082;2023-02-28T02:16:55;100052.00;;;-1.60
67822;BMP180;54434;50.096;20.082;2023-02-28T02:20:22;100053.00;;;-1.68
67822;BMP180;54434;50.096;20.082;2023-02-28T02:23:39;100047.00;;;-1.70
67822;BMP180;54434;50.096;20.082;2023-02-28T02:27:05;100045.20;;;-1.72
67822;BMP180;54434;50.096;20.082;2023-02-28T02:30:27;100053.40;;;-1.80
67822;BMP180;54434;50.096;20.082;2023-02-28T02:33:32;100046.60;;;-1.80
67822;BMP180;54434;50.096;20.082;2023-02-28T02:36:21;100048.20;;;-1.90
67822;BMP180;54434;50.096;20.082;2023-02-28T02:39:08;100044.80;;;-1.90
67822;BMP180;54434;50.096;20.082;2023-02-28T02:41:53;100039.20;;;-2.00
67822;BMP180;54434;50.096;20.082;2023-02-28T02:44:38;100034.60;;;-2.00
67822;BMP180;54434;50.096;20.082;2023-02-28T02:47:21;100023.00;;;-2.10
67822;BMP180;54434;50.096;20.082;2023-02-28T02:50:06;100028.00;;;-2.10
67822;BMP180;54434;50.096;20.082;2023-02-28T02:52:52;100029.80;;;-2.20
67822;BMP180;54434;50.096;20.082;2023-02-28T02:55:34;100031.00;;;-2.20
67822;BMP180;54434;50.096;20.082;2023-02-28T02:58:18;100033.20;;;-2.30
67822;BMP180;54434;50.096;20.082;2023-02-28T03:01:01;100035.00;;;-2.30
67822;BMP180;54434;50.096;20.082;2023-02-28T03:03:40;100035.00;;;-2.36
67822;BMP180;54434;50.096;20.082;2023-02-28T03:06:17;100028.80;;;-2.40
67822;BMP180;54434;50.096;20.082;2023-02-28T03:08:55;100028.20;;;-2.40
67822;BMP180;54434;50.096;20.082;2023-02-28T03:11:32;100025.00;;;-2.50
67822;BMP180;54434;50.096;20.082;2023-02-28T03:14:42;100030.60;;;-2.50
67822;BMP180;54434;50.096;20.082;2023-02-28T03:17:47;100034.60;;;-2.60
67822;BMP180;54434;50.096;20.082;2023-02-28T03:20:44;100031.00;;;-2.60
67822;BMP180;54434;50.096;20.082;2023-02-28T03:23:36;100039.20;;;-2.70
67822;BMP180;54434;50.096;20.082;2023-02-28T03:26:24;100041.40;;;-2.70
67822;BMP180;54434;50.096;20.082;2023-02-28T03:29:13;100039.60;;;-2.70
67822;BMP180;54434;50.096;20.082;2023-02-28T03:32:02;100040.60;;;-2.78
67822;BMP180;54434;50.096;20.082;2023-02-28T03:34:48;100044.20;;;-2.80
67822;BMP180;54434;50.096;20.082;2023-02-28T03:37:30;100044.40;;;-2.80
67822;BMP180;54434;50.096;20.082;2023-02-28T03:40:15;100046.80;;;-2.80
67822;BMP180;54434;50.096;20.082;2023-02-28T03:42:59;100047.80;;;-2.80
67822;BMP180;54434;50.096;20.082;2023-02-28T03:45:40;100048.60;;;-2.84
67822;BMP180;54434;50.096;20.082;2023-02-28T03:48:25;100055.80;;;-2.90
67822;BMP180;54434;50.096;20.082;2023-02-28T03:51:08;100054.80;;;-2.90
67822;BMP180;54434;50.096;20.082;2023-02-28T03:53:52;100053.80;;;-2.96
67822;BMP180;54434;50.096;20.082;2023-02-28T03:56:37;100052.00;;;-3.00
67822;BMP180;54434;50.096;20.082;2023-02-28T03:59:21;100055.40;;;-3.00
67822;BMP180;54434;50.096;20.082;2023-02-28T04:02:01;100056.80;;;-3.00
67822;BMP180;54434;50.096;20.082;2023-02-28T04:04:38;100055.40;;;-3.00
67822;BMP180;54434;50.096;20.082;2023-02-28T04:07:24;100059.00;;;-3.02
67822;BMP180;54434;50.096;20.082;2023-02-28T04:10:01;100062.60;;;-3.08
67822;BMP180;54434;50.096;20.082;2023-02-28T04:12:38;100063.80;;;-3.10
67822;BMP180;54434;50.096;20.082;2023-02-28T04:15:15;100063.00;;;-3.10
67822;BMP180;54434;50.096;20.082;2023-02-28T04:17:51;100066.20;;;-3.10
67822;BMP180;54434;50.096;20.082;2023-02-28T04:20:28;100060.20;;;-3.10
67822;BMP180;54434;50.096;20.082;2023-02-28T04:23:04;100061.00;;;-3.14
67822;BMP180;54434;50.096;20.082;2023-02-28T04:25:41;100064.00;;;-3.20
67822;BMP180;54434;50.096;20.082;2023-02-28T04:28:17;100062.60;;;-3.14
67822;BMP180;54434;50.096;20.082;2023-02-28T04:31:01;100065.80;;;-3.10
67822;BMP180;54434;50.096;20.082;2023-02-28T04:33:37;100072.60;;;-3.20
67822;BMP180;54434;50.096;20.082;2023-02-28T04:36:14;100079.00;;;-3.20
67822;BMP180;54434;50.096;20.082;2023-02-28T04:38:52;100075.20;;;-3.18
67822;BMP180;54434;50.096;20.082;2023-02-28T04:41:29;100073.20;;;-3.20
67822;BMP180;54434;50.096;20.082;2023-02-28T04:44:07;100075.20;;;-3.20
67822;BMP180;54434;50.096;20.082;2023-02-28T04:46:44;100077.40;;;-3.20
67822;BMP180;54434;50.096;20.082;2023-02-28T04:49:20;100078.20;;;-3.20
67822;BMP180;54434;50.096;20.082;2023-02-28T04:51:56;100082.00;;;-3.20
67822;BMP180;54434;50.096;20.082;2023-02-28T04:54:33;100084.00;;;-3.20
67822;BMP180;54434;50.096;20.082;2023-02-28T04:57:10;100087.20;;;-3.20
67822;BMP180;54434;50.096;20.082;2023-02-28T04:59:46;100088.40;;;-3.20
67822;BMP180;54434;50.096;20.082;2023-02-28T05:02:23;100087.20;;;-3.22
67822;BMP180;54434;50.096;20.082;2023-02-28T05:04:59;100090.80;;;-3.28
67822;BMP180;54434;50.096;20.082;2023-02-28T05:07:36;100090.00;;;-3.30
67822;BMP180;54434;50.096;20.082;2023-02-28T05:10:14;100094.20;;;-3.30
67822;BMP180;54434;50.096;20.082;2023-02-28T05:12:51;100091.80;;;-3.30
67822;BMP180;54434;50.096;20.082;2023-02-28T05:15:27;100093.00;;;-3.30
67822;BMP180;54434;50.096;20.082;2023-02-28T05:18:04;100095.20;;;-3.36
67822;BMP180;54434;50.096;20.082;2023-02-28T05:20:41;100095.40;;;-3.40
67822;BMP180;54434;50.096;20.082;2023-02-28T05:23:22;100094.20;;;-3.40
67822;BMP180;54434;50.096;20.082;2023-02-28T05:25:59;100098.80;;;-3.40
67822;BMP180;54434;50.096;20.082;2023-02-28T05:28:35;100100.60;;;-3.40
67822;BMP180;54434;50.096;20.082;2023-02-28T05:31:13;100103.60;;;-3.40
67822;BMP180;54434;50.096;20.082;2023-02-28T05:33:50;100103.20;;;-3.40
67822;BMP180;54434;50.096;20.082;2023-02-28T05:36:27;100109.00;;;-3.40
67822;BMP180;54434;50.096;20.082;2023-02-28T05:39:04;100112.00;;;-3.40
67822;BMP180;54434;50.096;20.082;2023-02-28T05:41:42;100116.60;;;-3.40
67822;BMP180;54434;50.096;20.082;2023-02-28T05:44:19;100110.40;;;-3.40
67822;BMP180;54434;50.096;20.082;2023-02-28T05:46:55;100109.80;;;-3.38
67822;BMP180;54434;50.096;20.082;2023-02-28T05:49:32;100113.80;;;-3.30
67822;BMP180;54434;50.096;20.082;2023-02-28T05:52:09;100119.60;;;-3.30
67822;BMP180;54434;50.096;20.082;2023-02-28T05:54:47;100128.00;;;-3.22
67822;BMP180;54434;50.096;20.082;2023-02-28T05:57:23;100133.20;;;-3.20
67822;BMP180;54434;50.096;20.082;2023-02-28T06:00:00;100135.80;;;-3.10
67822;BMP180;54434;50.096;20.082;2023-02-28T06:02:46;100142.60;;;-3.10
67822;BMP180;54434;50.096;20.082;2023-02-28T06:05:23;100142.20;;;-3.00
67822;BMP180;54434;50.096;20.082;2023-02-28T06:08:00;100145.60;;;-3.00
67822;BMP180;54434;50.096;20.082;2023-02-28T06:10:36;100144.60;;;-2.90
67822;BMP180;54434;50.096;20.082;2023-02-28T06:13:13;100143.40;;;-2.82
67822;BMP180;54434;50.096;20.082;2023-02-28T06:15:50;100141.40;;;-2.78
67822;BMP180;54434;50.096;20.082;2023-02-28T06:18:26;100144.60;;;-2.70
67822;BMP180;54434;50.096;20.082;2023-02-28T06:21:03;100148.40;;;-2.64
67822;BMP180;54434;50.096;20.082;2023-02-28T06:23:39;100151.40;;;-2.60
67822;BMP180;54434;50.096;20.082;2023-02-28T06:26:16;100154.60;;;-2.46
67822;BMP180;54434;50.096;20.082;2023-02-28T06:28:53;100157.00;;;-2.32
67822;BMP180;54434;50.096;20.082;2023-02-28T06:31:30;100156.20;;;-2.22
67822;BMP180;54434;50.096;20.082;2023-02-28T06:34:07;100157.80;;;-2.10
67822;BMP180;54434;50.096;20.082;2023-02-28T06:36:44;100162.60;;;-2.00
67822;BMP180;54434;50.096;20.082;2023-02-28T06:39:22;100165.20;;;-1.94
67822;BMP180;54434;50.096;20.082;2023-02-28T06:41:58;100169.20;;;-1.82
67822;BMP180;54434;50.096;20.082;2023-02-28T06:44:34;100168.40;;;-1.80
67822;BMP180;54434;50.096;20.082;2023-02-28T06:47:11;100173.60;;;-1.70
67822;BMP180;54434;50.096;20.082;2023-02-28T06:49:47;100172.40;;;-1.60
67822;BMP180;54434;50.096;20.082;2023-02-28T06:52:24;100173.80;;;-1.60
67822;BMP180;54434;50.096;20.082;2023-02-28T06:55:00;100177.60;;;-1.52
67822;BMP180;54434;50.096;20.082;2023-02-28T06:57:38;100175.60;;;-1.50
67822;BMP180;54434;50.096;20.082;2023-02-28T07:00:18;100179.40;;;-1.50
67822;BMP180;54434;50.096;20.082;2023-02-28T07:02:54;100177.40;;;-1.48
67822;BMP180;54434;50.096;20.082;2023-02-28T07:05:32;100183.20;;;-1.42
67822;BMP180;54434;50.096;20.082;2023-02-28T07:08:11;100183.20;;;-1.40
67822;BMP180;54434;50.096;20.082;2023-02-28T07:10:48;100184.80;;;-1.40
67822;BMP180;54434;50.096;20.082;2023-02-28T07:13:27;100191.40;;;-1.30
67822;BMP180;54434;50.096;20.082;2023-02-28T07:16:07;100191.00;;;-1.20
67822;BMP180;54434;50.096;20.082;2023-02-28T07:18:46;100189.00;;;-1.20
67822;BMP180;54434;50.096;20.082;2023-02-28T07:21:23;100191.20;;;-1.10
67822;BMP180;54434;50.096;20.082;2023-02-28T07:24:00;100192.80;;;-1.02
67822;BMP180;54434;50.096;20.082;2023-02-28T07:26:36;100192.00;;;-1.00
67822;BMP180;54434;50.096;20.082;2023-02-28T07:29:13;100193.00;;;-1.00
67822;BMP180;54434;50.096;20.082;2023-02-28T07:31:49;100194.60;;;-0.90
67822;BMP180;54434;50.096;20.082;2023-02-28T07:34:28;100197.20;;;-0.90
67822;BMP180;54434;50.096;20.082;2023-02-28T07:37:05;100200.20;;;-0.76
67822;BMP180;54434;50.096;20.082;2023-02-28T07:39:42;100201.40;;;-0.60
67822;BMP180;54434;50.096;20.082;2023-02-28T07:42:18;100200.80;;;-0.50
67822;BMP180;54434;50.096;20.082;2023-02-28T07:44:58;100201.40;;;-0.40
67822;BMP180;54434;50.096;20.082;2023-02-28T07:47:35;100201.20;;;-0.40
67822;BMP180;54434;50.096;20.082;2023-02-28T07:50:15;100202.60;;;-0.30
67822;BMP180;54434;50.096;20.082;2023-02-28T07:52:52;100200.20;;;-0.22
67822;BMP180;54434;50.096;20.082;2023-02-28T07:55:28;100203.40;;;-0.20
67822;BMP180;54434;50.096;20.082;2023-02-28T07:58:05;100197.00;;;-0.20
67822;BMP180;54434;50.096;20.082;2023-02-28T08:00:41;100196.00;;;-0.10
67822;BMP180;54434;50.096;20.082;2023-02-28T08:03:19;100194.40;;;-0.10
67822;BMP180;54434;50.096;20.082;2023-02-28T08:05:56;100193.80;;;0.00
67822;BMP180;54434;50.096;20.082;2023-02-28T08:08:33;100193.60;;;0.10
67822;BMP180;54434;50.096;20.082;2023-02-28T08:11:10;100196.20;;;0.10
67822;BMP180;54434;50.096;20.082;2023-02-28T08:13:47;100198.40;;;0.20
67822;BMP180;54434;50.096;20.082;2023-02-28T08:16:24;100196.80;;;0.26
67822;BMP180;54434;50.096;20.082;2023-02-28T08:19:01;100199.60;;;0.38
67822;BMP180;54434;50.096;20.082;2023-02-28T08:21:38;100195.80;;;0.40
67822;BMP180;54434;50.096;20.082;2023-02-28T08:24:14;100195.40;;;0.48
67822;BMP180;54434;50.096;20.082;2023-02-28T08:26:51;100196.60;;;0.50
67822;BMP180;54434;50.096;20.082;2023-02-28T08:29:27;100203.40;;;0.60
67822;BMP180;54434;50.096;20.082;2023-02-28T08:32:06;100202.60;;;0.60
67822;BMP180;54434;50.096;20.082;2023-02-28T08:34:54;100204.20;;;0.64
67822;BMP180;54434;50.096;20.082;2023-02-28T08:37:30;100203.20;;;0.72
67822;BMP180;54434;50.096;20.082;2023-02-28T08:40:12;100202.20;;;0.80
67822;BMP180;54434;50.096;20.082;2023-02-28T08:42:53;100204.60;;;1.00
67822;BMP180;54434;50.096;20.082;2023-02-28T08:45:29;100201.80;;;1.14
67822;BMP180;54434;50.096;20.082;2023-02-28T08:48:07;100209.60;;;1.20
67822;BMP180;54434;50.096;20.082;2023-02-28T08:50:43;100206.20;;;1.22
67822;BMP180;54434;50.096;20.082;2023-02-28T08:53:30;100207.80;;;1.30
67822;BMP180;54434;50.096;20.082;2023-02-28T08:56:10;100204.60;;;1.40
67822;BMP180;54434;50.096;20.082;2023-02-28T08:58:48;100205.40;;;1.42
67822;BMP180;54434;50.096;20.082;2023-02-28T09:01:28;100202.00;;;1.50
67822;BMP180;54434;50.096;20.082;2023-02-28T09:04:06;100202.00;;;1.70
67822;BMP180;54434;50.096;20.082;2023-02-28T09:06:43;100196.60;;;1.88
67822;BMP180;54434;50.096;20.082;2023-02-28T09:09:20;100202.80;;;2.22
67822;BMP180;54434;50.096;20.082;2023-02-28T09:11:58;100213.40;;;2.50
67822;BMP180;54434;50.096;20.082;2023-02-28T09:14:35;100204.40;;;2.54
67822;BMP180;54434;50.096;20.082;2023-02-28T09:17:11;100198.80;;;2.60
67822;BMP180;54434;50.096;20.082;2023-02-28T09:19:50;100209.40;;;2.70
67822;BMP180;54434;50.096;20.082;2023-02-28T09:22:26;100212.80;;;2.70
67822;BMP180;54434;50.096;20.082;2023-02-28T09:25:04;100213.60;;;2.60
67822;BMP180;54434;50.096;20.082;2023-02-28T09:27:40;100203.60;;;2.50
67822;BMP180;54434;50.096;20.082;2023-02-28T09:30:18;100209.40;;;2.50
67822;BMP180;54434;50.096;20.082;2023-02-28T09:32:55;100210.60;;;2.60
67822;BMP180;54434;50.096;20.082;2023-02-28T09:35:32;100216.00;;;2.60
67822;BMP180;54434;50.096;20.082;2023-02-28T09:38:08;100210.20;;;2.50
67822;BMP180;54434;50.096;20.082;2023-02-28T09:40:53;100205.60;;;2.50
67822;BMP180;54434;50.096;20.082;2023-02-28T09:43:36;100205.00;;;2.50
67822;BMP180;54434;50.096;20.082;2023-02-28T09:46:29;100212.20;;;2.50
67822;BMP180;54434;50.096;20.082;2023-02-28T09:49:14;100205.20;;;2.40
67822;BMP180;54434;50.096;20.082;2023-02-28T09:52:01;100209.40;;;2.30
67822;BMP180;54434;50.096;20.082;2023-02-28T09:54:39;100205.80;;;2.20
67822;BMP180;54434;50.096;20.082;2023-02-28T09:57:34;100212.20;;;2.20
67822;BMP180;54434;50.096;20.082;2023-02-28T10:00:22;100211.00;;;2.18
67822;BMP180;54434;50.096;20.082;2023-02-28T10:03:34;100212.60;;;2.10
67822;BMP180;54434;50.096;20.082;2023-02-28T10:06:19;100213.20;;;2.10
67822;BMP180;54434;50.096;20.082;2023-02-28T10:09:04;100212.80;;;2.00
67822;BMP180;54434;50.096;20.082;2023-02-28T10:11:45;100214.80;;;2.02
67822;BMP180;54434;50.096;20.082;2023-02-28T10:14:26;100211.00;;;2.10
67822;BMP180;54434;50.096;20.082;2023-02-28T10:17:12;100206.40;;;2.10
67822;BMP180;54434;50.096;20.082;2023-02-28T10:20:00;100208.60;;;2.00
67822;BMP180;54434;50.096;20.082;2023-02-28T10:22:58;100202.20;;;2.00
67822;BMP180;54434;50.096;20.082;2023-02-28T10:25:47;100201.80;;;1.90
67822;BMP180;54434;50.096;20.082;2023-02-28T10:28:30;100192.40;;;1.90
67822;BMP180;54434;50.096;20.082;2023-02-28T10:31:10;100193.60;;;1.90
67822;BMP180;54434;50.096;20.082;2023-02-28T10:33:49;100194.60;;;1.90
67822;BMP180;54434;50.096;20.082;2023-02-28T10:36:26;100195.60;;;1.90
67822;BMP180;54434;50.096;20.082;2023-02-28T10:39:37;100189.00;;;1.88
67822;BMP180;54434;50.096;20.082;2023-02-28T10:42:28;100189.00;;;1.80
67822;BMP180;54434;50.096;20.082;2023-02-28T10:45:18;100187.80;;;1.80
67822;BMP180;54434;50.096;20.082;2023-02-28T10:48:01;100191.20;;;1.62
67822;BMP180;54434;50.096;20.082;2023-02-28T10:50:52;100176.20;;;1.60
67822;BMP180;54434;50.096;20.082;2023-02-28T10:53:44;100177.00;;;1.60
67822;BMP180;54434;50.096;20.082;2023-02-28T10:56:35;100176.40;;;1.70
67822;BMP180;54434;50.096;20.082;2023-02-28T10:59:33;100169.60;;;1.70
67822;BMP180;54434;50.096;20.082;2023-02-28T11:02:36;100172.20;;;1.70
67822;BMP180;54434;50.096;20.082;2023-02-28T11:05:32;100167.20;;;1.68
67822;BMP180;54434;50.096;20.082;2023-02-28T11:08:17;100163.20;;;1.70
67822;BMP180;54434;50.096;20.082;2023-02-28T11:11:01;100167.00;;;1.76
67822;BMP180;54434;50.096;20.082;2023-02-28T11:13:40;100159.40;;;1.80
67822;BMP180;54434;50.096;20.082;2023-02-28T11:16:17;100153.80;;;1.80
67822;BMP180;54434;50.096;20.082;2023-02-28T11:18:56;100148.00;;;1.80
67822;BMP180;54434;50.096;20.082;2023-02-28T11:21:38;100148.60;;;1.88
67822;BMP180;54434;50.096;20.082;2023-02-28T11:24:27;100147.80;;;1.90
67822;BMP180;54434;50.096;20.082;2023-02-28T11:27:04;100141.40;;;1.90
67822;BMP180;54434;50.096;20.082;2023-02-28T11:29:49;100138.00;;;1.90
67822;BMP180;54434;50.096;20.082;2023-02-28T11:32:28;100137.00;;;1.88
67822;BMP180;54434;50.096;20.082;2023-02-28T11:35:19;100134.20;;;1.80
67822;BMP180;54434;50.096;20.082;2023-02-28T11:37:58;100134.60;;;1.80
67822;BMP180;54434;50.096;20.082;2023-02-28T11:40:48;100128.20;;;1.80
67822;BMP180;54434;50.096;20.082;2023-02-28T11:43:53;100129.20;;;1.90
67822;BMP180;54434;50.096;20.082;2023-02-28T11:46:43;100129.60;;;2.00
67822;BMP180;54434;50.096;20.082;2023-02-28T11:49:37;100136.40;;;2.00
67822;BMP180;54434;50.096;20.082;2023-02-28T11:52:39;100131.40;;;2.00
67822;BMP180;54434;50.096;20.082;2023-02-28T11:55:27;100131.40;;;2.00
67822;BMP180;54434;50.096;20.082;2023-02-28T11:58:36;100130.20;;;2.00
67822;BMP180;54434;50.096;20.082;2023-02-28T12:01:32;100128.40;;;1.98
67822;BMP180;54434;50.096;20.082;2023-02-28T12:04:32;100121.80;;;1.90
67822;BMP180;54434;50.096;20.082;2023-02-28T12:07:20;100120.00;;;1.90
67822;BMP180;54434;50.096;20.082;2023-02-28T12:10:15;100116.00;;;1.90
67822;BMP180;54434;50.096;20.082;2023-02-28T12:13:12;100120.60;;;1.90
67822;BMP180;54434;50.096;20.082;2023-02-28T12:16:24;100121.00;;;1.90
67822;BMP180;54434;50.096;20.082;2023-02-28T12:19:20;100118.40;;;2.00
67822;BMP180;54434;50.096;20.082;2023-02-28T12:22:33;100114.80;;;1.98
67822;BMP180;54434;50.096;20.082;2023-02-28T12:26:07;100115.00;;;2.00
67822;BMP180;54434;50.096;20.082;2023-02-28T12:28:50;100117.60;;;2.00
67822;BMP180;54434;50.096;20.082;2023-02-28T12:31:34;100122.40;;;2.00
67822;BMP180;54434;50.096;20.082;2023-02-28T12:34:17;100124.80;;;2.00
67822;BMP180;54434;50.096;20.082;2023-02-28T12:36:57;100115.00;;;2.00
67822;BMP180;54434;50.096;20.082;2023-02-28T12:39:41;100118.00;;;2.00
67822;BMP180;54434;50.096;20.082;2023-02-28T12:42:32;100121.00;;;2.00
67822;BMP180;54434;50.096;20.082;2023-02-28T12:45:19;100121.40;;;2.00
67822;BMP180;54434;50.096;20.082;2023-02-28T12:48:02;100126.20;;;2.00
67822;BMP180;54434;50.096;20.082;2023-02-28T12:50:41;100121.60;;;2.06
67822;BMP180;54434;50.096;20.082;2023-02-28T12:53:27;100117.40;;;2.00
67822;BMP180;54434;50.096;20.082;2023-02-28T12:56:19;100114.80;;;2.00
67822;BMP180;54434;50.096;20.082;2023-02-28T12:59:03;100113.60;;;2.04
67822;BMP180;54434;50.096;20.082;2023-02-28T13:02:02;100110.40;;;2.00
67822;BMP180;54434;50.096;20.082;2023-02-28T13:09:10;100109.00;;;2.10
67822;BMP180;54434;50.096;20.082;2023-02-28T13:11:51;100105.80;;;2.10
67822;BMP180;54434;50.096;20.082;2023-02-28T13:14:37;100104.00;;;2.10
67822;BMP180;54434;50.096;20.082;2023-02-28T13:17:23;100098.00;;;2.10
67822;BMP180;54434;50.096;20.082;2023-02-28T13:20:13;100106.40;;;2.10
67822;BMP180;54434;50.096;20.082;2023-02-28T13:22:55;100101.40;;;2.10
67822;BMP180;54434;50.096;20.082;2023-02-28T13:25:56;100102.00;;;2.10
67822;BMP180;54434;50.096;20.082;2023-02-28T13:29:05;100100.40;;;2.10
67822;BMP180;54434;50.096;20.082;2023-02-28T13:32:36;100099.00;;;2.10
67822;BMP180;54434;50.096;20.082;2023-02-28T13:35:45;100094.00;;;2.10
67822;BMP180;54434;50.096;20.082;2023-02-28T13:38:40;100085.80;;;2.00
67822;BMP180;54434;50.096;20.082;2023-02-28T13:41:57;100085.60;;;2.00
67822;BMP180;54434;50.096;20.082;2023-02-28T13:45:32;100085.00;;;2.00
67822;BMP180;54434;50.096;20.082;2023-02-28T13:48:29;100083.00;;;2.00
67822;BMP180;54434;50.096;20.082;2023-02-28T13:51:41;100086.40;;;2.00
67822;BMP180;54434;50.096;20.082;2023-02-28T13:54:37;100078.60;;;2.00
67822;BMP180;54434;50.096;20.082;2023-02-28T13:57:41;100075.20;;;2.00
67822;BMP180;54434;50.096;20.082;2023-02-28T14:00:42;100074.60;;;2.00
67822;BMP180;54434;50.096;20.082;2023-02-28T14:03:44;100063.80;;;2.00
67822;BMP180;54434;50.096;20.082;2023-02-28T14:06:29;100055.80;;;2.00
67822;BMP180;54434;50.096;20.082;2023-02-28T14:09:23;100058.20;;;2.02
67822;BMP180;54434;50.096;20.082;2023-02-28T14:12:57;100053.20;;;2.00
67822;BMP180;54434;50.096;20.082;2023-02-28T14:15:58;100047.40;;;2.04
67822;BMP180;54434;50.096;20.082;2023-02-28T14:18:39;100047.20;;;2.10
67822;BMP180;54434;50.096;20.082;2023-02-28T14:21:26;100046.20;;;2.10
67822;BMP180;54434;50.096;20.082;2023-02-28T14:25:07;100044.60;;;2.10
67822;BMP180;54434;50.096;20.082;2023-02-28T14:28:02;100049.60;;;2.10
67822;BMP180;54434;50.096;20.082;2023-02-28T14:31:00;100047.60;;;2.10
67822;BMP180;54434;50.096;20.082;2023-02-28T14:33:59;100051.80;;;2.10
67822;BMP180;54434;50.096;20.082;2023-02-28T14:36:43;100049.40;;;2.04
67822;BMP180;54434;50.096;20.082;2023-02-28T14:39:24;100050.00;;;2.00
67822;BMP180;54434;50.096;20.082;2023-02-28T14:42:02;100050.80;;;2.00
67822;BMP180;54434;50.096;20.082;2023-02-28T14:44:40;100046.40;;;1.90
67822;BMP180;54434;50.096;20.082;2023-02-28T14:47:19;100053.40;;;1.90
67822;BMP180;54434;50.096;20.082;2023-02-28T14:49:58;100048.80;;;1.90
67822;BMP180;54434;50.096;20.082;2023-02-28T14:52:36;100050.80;;;1.90
67822;BMP180;54434;50.096;20.082;2023-02-28T14:55:19;100051.60;;;1.90
67822;BMP180;54434;50.096;20.082;2023-02-28T14:58:00;100050.00;;;1.90
67822;BMP180;54434;50.096;20.082;2023-02-28T15:00:50;100048.40;;;1.80
67822;BMP180;54434;50.096;20.082;2023-02-28T15:03:35;100052.80;;;1.80
67822;BMP180;54434;50.096;20.082;2023-02-28T15:06:18;100047.80;;;1.80
67822;BMP180;54434;50.096;20.082;2023-02-28T15:09:19;100048.60;;;1.80
67822;BMP180;54434;50.096;20.082;2023-02-28T15:11:57;100051.20;;;1.70
67822;BMP180;54434;50.096;20.082;2023-02-28T15:14:35;100052.00;;;1.70
67822;BMP180;54434;50.096;20.082;2023-02-28T15:17:23;100049.00;;;1.70
67822;BMP180;54434;50.096;20.082;2023-02-28T15:20:02;100044.00;;;1.68
67822;BMP180;54434;50.096;20.082;2023-02-28T15:22:41;100047.60;;;1.60
67822;BMP180;54434;50.096;20.082;2023-02-28T15:25:23;100042.40;;;1.60
67822;BMP180;54434;50.096;20.082;2023-02-28T15:28:00;100042.80;;;1.58